Saint Charles, Iowa
Current Conditions -  °F | °C
As of 12:55 AM on Monday 22 Dec 2014 (Local Time) from KI75 Reporting Station
Haze Haze  
Wind Chill: 34°   Ceiling: 800
Heat Index: 41°   Visibility: 5mi
Dew Point: 39°   Wind: 10mph
Humidity: 94%   Direction: 150°SSE
Pressure: 29.73"   Gusts: 16mph
Location:  41.29°N, 93.81°W
Report Text: KI75 220655Z AUTO 15009G14KT 5SM BR OVC008 05/04 A2973 RMK AO2 T00480039
Loading
Personal Weather Stations






























Interactive Weather Map New forecast layout! Learn more

10-Day Weather Forecast

Advertisements
Track Severe Weather on mobile